Time;durP1;ratioP1;P1;durP2;ratioP2;P2;SDS_P1;SDS_P2;PMS_P1;PMS_P2;Temp;Humidity;BMP_temperature;BMP_pressure;BME280_temperature;BME280_humidity;BME280_pressure;Samples;Min_cycle;Max_cycle;Signal;HPM_P1;HPM_P2
2024/01/21 00:01:17;;;;;;;15.75;7.10;;;0.70;99.90;;;;;;4870125;29;20056;-75
2024/01/21 00:03:43;;;;;;;17.75;7.47;;;0.70;99.90;;;;;;4870753;29;20037;-76
2024/01/21 00:06:08;;;;;;;12.70;6.43;;;0.70;99.90;;;;;;4853765;29;20076;-75
2024/01/21 00:08:34;;;;;;;15.98;7.45;;;0.70;99.90;;;;;;4873506;29;20065;-75
2024/01/21 00:10:59;;;;;;;12.02;6.80;;;0.70;99.90;;;;;;4866233;29;20048;-75
2024/01/21 00:13:25;;;;;;;12.77;6.60;;;0.70;99.90;;;;;;4892667;29;20041;-75
2024/01/21 00:15:51;;;;;;;14.23;7.72;;;0.70;99.90;;;;;;4857219;29;20048;-75
2024/01/21 00:18:17;;;;;;;14.30;6.72;;;0.70;99.90;;;;;;4863583;29;20087;-75
2024/01/21 00:20:42;;;;;;;12.55;6.47;;;0.70;99.90;;;;;;4874478;29;20049;-75
2024/01/21 00:23:08;;;;;;;10.88;6.20;;;0.70;99.90;;;;;;4853600;29;20084;-75
2024/01/21 00:25:35;;;;;;;11.60;6.43;;;0.70;99.90;;;;;;4884951;29;20088;-75
2024/01/21 00:28:00;;;;;;;13.25;6.45;;;0.70;99.90;;;;;;4880485;29;20052;-75
2024/01/21 00:30:27;;;;;;;10.85;5.85;;;0.70;99.90;;;;;;4878262;29;20047;-75
2024/01/21 00:32:52;;;;;;;11.27;6.00;;;0.70;99.90;;;;;;4883491;29;20155;-75
2024/01/21 00:35:18;;;;;;;14.27;6.22;;;0.70;99.90;;;;;;4863085;29;20172;-75
2024/01/21 00:37:44;;;;;;;11.00;6.22;;;0.70;99.90;;;;;;4880202;29;20084;-74
2024/01/21 00:40:10;;;;;;;11.77;6.13;;;0.70;99.90;;;;;;4875032;29;20735;-75
2024/01/21 00:42:36;;;;;;;12.57;5.88;;;0.70;99.90;;;;;;4877085;29;20044;-75
2024/01/21 00:45:02;;;;;;;9.73;5.43;;;0.70;99.90;;;;;;4868361;29;20053;-75
2024/01/21 00:47:27;;;;;;;11.32;5.68;;;0.70;99.90;;;;;;4864872;29;20060;-75
2024/01/21 00:49:53;;;;;;;9.32;4.80;;;0.70;99.90;;;;;;4893125;29;20481;-75
2024/01/21 00:52:18;;;;;;;15.65;5.30;;;0.70;99.90;;;;;;4849564;29;20581;-75
2024/01/21 00:54:44;;;;;;;9.07;5.03;;;0.70;99.90;;;;;;4875880;29;20045;-75
2024/01/21 00:57:10;;;;;;;10.65;5.57;;;0.70;99.90;;;;;;4868593;29;20101;-75
2024/01/21 00:59:36;;;;;;;11.38;5.20;;;0.80;99.90;;;;;;4853919;29;20049;-75
2024/01/21 01:02:01;;;;;;;8.18;4.70;;;0.80;99.90;;;;;;4864479;29;20044;-75
2024/01/21 01:04:27;;;;;;;10.15;5.13;;;0.70;99.90;;;;;;4883261;29;20069;-75
2024/01/21 01:06:53;;;;;;;10.30;5.25;;;0.70;99.90;;;;;;4852658;29;20083;-75
2024/01/21 01:09:18;;;;;;;12.82;5.55;;;0.80;99.90;;;;;;4861595;29;20096;-75
2024/01/21 01:11:44;;;;;;;10.77;5.30;;;0.80;99.90;;;;;;4881701;29;20049;-75
2024/01/21 01:14:09;;;;;;;8.63;4.38;;;0.80;99.90;;;;;;4862174;29;20048;-75
2024/01/21 01:16:39;;;;;;;12.23;5.20;;;0.80;99.90;;;;;;4854577;29;20132;-75
2024/01/21 01:19:05;;;;;;;11.43;5.03;;;0.80;99.90;;;;;;4849923;29;20514;-75
2024/01/21 01:21:31;;;;;;;10.80;4.90;;;0.80;99.90;;;;;;4858199;29;20061;-75
2024/01/21 01:23:57;;;;;;;11.10;4.82;;;0.80;99.90;;;;;;4885433;29;20049;-75
2024/01/21 01:26:23;;;;;;;8.07;4.28;;;0.80;99.90;;;;;;4879342;29;20586;-75
2024/01/21 01:28:50;;;;;;;9.35;4.97;;;0.90;99.90;;;;;;4843726;29;20418;-75
2024/01/21 01:31:20;;;;;;;9.85;4.60;;;0.90;99.90;;;;;;4872204;29;20102;-75
2024/01/21 01:33:46;;;;;;;9.48;4.30;;;0.90;99.90;;;;;;4867492;29;21821;-75
2024/01/21 01:36:11;;;;;;;9.13;4.20;;;0.90;99.90;;;;;;4858047;29;20131;-76
2024/01/21 01:38:38;;;;;;;7.72;4.22;;;0.90;99.90;;;;;;4882906;29;20381;-76
2024/01/21 01:41:04;;;;;;;10.00;4.35;;;0.90;99.90;;;;;;4861959;29;20052;-76
2024/01/21 01:43:29;;;;;;;7.82;3.95;;;1.00;99.90;;;;;;4889264;29;20105;-76
2024/01/21 01:45:56;;;;;;;8.10;3.95;;;1.00;99.90;;;;;;4870028;29;20080;-76
2024/01/21 01:48:22;;;;;;;7.10;3.43;;;1.00;99.90;;;;;;4884764;29;20048;-76
2024/01/21 01:50:49;;;;;;;6.97;3.42;;;1.00;99.90;;;;;;4876555;29;20736;-76
2024/01/21 01:53:16;;;;;;;7.70;4.00;;;1.00;99.90;;;;;;4876185;29;20470;-76
2024/01/21 01:55:44;;;;;;;8.30;4.40;;;1.00;99.90;;;;;;4880239;29;20357;-76
2024/01/21 01:58:14;;;;;;;7.60;3.97;;;1.00;99.90;;;;;;4874074;29;20052;-76
2024/01/21 02:00:40;;;;;;;8.23;4.22;;;1.00;99.90;;;;;;4863360;29;20080;-76
2024/01/21 02:03:07;;;;;;;10.13;4.22;;;1.10;99.90;;;;;;4892166;29;20053;-76
2024/01/21 02:05:34;;;;;;;6.70;3.47;;;1.00;99.90;;;;;;4869954;29;20068;-76
2024/01/21 02:08:00;;;;;;;6.93;3.42;;;1.00;99.90;;;;;;4859706;29;20052;-76
2024/01/21 02:10:29;;;;;;;6.93;4.00;;;1.00;99.90;;;;;;4850312;29;20053;-76
2024/01/21 02:12:55;;;;;;;7.95;3.97;;;1.10;99.90;;;;;;4869814;29;20057;-76
2024/01/21 02:15:21;;;;;;;7.20;3.83;;;1.10;99.90;;;;;;4892686;29;20040;-76
2024/01/21 02:17:46;;;;;;;7.20;3.72;;;1.10;99.90;;;;;;4883195;29;20445;-76
2024/01/21 02:20:12;;;;;;;8.23;3.63;;;1.10;99.90;;;;;;4894455;29;20068;-76
2024/01/21 02:22:40;;;;;;;7.30;3.85;;;1.10;99.90;;;;;;4894934;29;20417;-76
2024/01/21 02:25:06;;;;;;;8.15;3.97;;;1.00;99.90;;;;;;4888933;29;20045;-76
2024/01/21 02:27:32;;;;;;;8.20;3.70;;;1.00;99.90;;;;;;4876233;29;20125;-76
2024/01/21 02:29:58;;;;;;;8.32;3.38;;;1.10;99.90;;;;;;4881263;29;20179;-76
2024/01/21 02:32:23;;;;;;;6.78;3.40;;;1.10;99.90;;;;;;4848927;29;20398;-76
2024/01/21 02:34:49;;;;;;;7.47;2.97;;;1.10;99.90;;;;;;4888933;29;20056;-76
2024/01/21 02:37:14;;;;;;;6.07;3.10;;;1.10;99.90;;;;;;4857321;29;20045;-76
2024/01/21 02:39:40;;;;;;;6.70;3.13;;;1.10;99.90;;;;;;4851710;29;20084;-76
2024/01/21 02:42:06;;;;;;;6.13;2.78;;;1.10;99.90;;;;;;4892739;29;20053;-76
2024/01/21 02:44:32;;;;;;;7.15;2.97;;;1.10;99.90;;;;;;4877660;29;20116;-76
2024/01/21 02:46:57;;;;;;;8.20;3.30;;;1.10;99.90;;;;;;4865701;29;20128;-75
2024/01/21 02:49:24;;;;;;;6.78;3.42;;;1.10;99.90;;;;;;4869404;29;20040;-76
2024/01/21 02:51:50;;;;;;;6.40;2.87;;;1.10;99.90;;;;;;4861835;29;20056;-76
2024/01/21 02:54:15;;;;;;;8.48;3.22;;;1.10;99.90;;;;;;4858236;29;20286;-76
2024/01/21 02:56:41;;;;;;;5.90;3.05;;;1.10;99.90;;;;;;4856406;29;20064;-75
2024/01/21 02:59:07;;;;;;;4.85;2.50;;;1.20;99.90;;;;;;4870005;29;20135;-76
2024/01/21 03:01:33;;;;;;;6.15;2.90;;;1.20;99.90;;;;;;4868281;29;20080;-76
2024/01/21 03:03:59;;;;;;;3.90;2.47;;;1.20;99.90;;;;;;4851344;29;20052;-76
2024/01/21 03:06:24;;;;;;;4.78;2.35;;;1.20;99.90;;;;;;4869183;29;20033;-75
2024/01/21 03:08:50;;;;;;;4.47;2.30;;;1.20;99.90;;;;;;4842281;29;20398;-76
2024/01/21 03:11:16;;;;;;;5.13;1.98;;;1.20;99.90;;;;;;4856826;29;21984;-76
2024/01/21 03:13:41;;;;;;;4.45;2.50;;;1.30;99.90;;;;;;4851835;29;20048;-76
2024/01/21 03:16:07;;;;;;;5.18;2.30;;;1.30;99.90;;;;;;4856425;29;20101;-76
2024/01/21 03:18:32;;;;;;;5.30;2.35;;;1.30;99.90;;;;;;4852844;29;20529;-76
2024/01/21 03:20:58;;;;;;;5.32;2.33;;;1.30;99.90;;;;;;4863204;29;20052;-76
2024/01/21 03:23:24;;;;;;;4.82;2.53;;;1.30;99.90;;;;;;4873009;29;20451;-76
2024/01/21 03:25:49;;;;;;;6.05;2.47;;;1.30;99.90;;;;;;4856407;29;20088;-76
2024/01/21 03:28:15;;;;;;;5.00;2.17;;;1.30;99.90;;;;;;4869816;29;20042;-76
2024/01/21 03:30:40;;;;;;;5.82;2.20;;;1.30;99.90;;;;;;4872510;29;20041;-76
2024/01/21 03:33:06;;;;;;;4.53;2.08;;;1.30;99.90;;;;;;4861821;29;20052;-76
2024/01/21 03:35:32;;;;;;;5.93;1.80;;;1.30;99.90;;;;;;4851967;29;20085;-76
2024/01/21 03:37:57;;;;;;;4.00;2.50;;;1.40;99.90;;;;;;4861679;29;20128;-74
2024/01/21 03:40:23;;;;;;;4.80;2.25;;;1.40;99.90;;;;;;4865065;29;20052;-76
2024/01/21 03:42:49;;;;;;;4.05;2.22;;;1.30;99.90;;;;;;4852834;29;20448;-76
2024/01/21 03:45:15;;;;;;;4.93;1.77;;;1.40;99.90;;;;;;4868643;29;20041;-76
2024/01/21 03:47:40;;;;;;;3.63;2.10;;;1.40;99.90;;;;;;4860466;29;20052;-76
2024/01/21 03:50:06;;;;;;;4.50;1.92;;;1.40;99.90;;;;;;4852496;29;20049;-76
2024/01/21 03:52:32;;;;;;;6.95;2.00;;;1.40;99.90;;;;;;4871228;29;20056;-76
2024/01/21 03:54:58;;;;;;;3.55;1.80;;;1.40;99.90;;;;;;4846121;29;20045;-76
2024/01/21 03:57:23;;;;;;;4.20;1.75;;;1.40;99.90;;;;;;4882197;29;20052;-76
2024/01/21 03:59:49;;;;;;;5.88;1.98;;;1.40;99.90;;;;;;4892373;29;20052;-76
2024/01/21 04:02:14;;;;;;;4.05;1.90;;;1.40;99.90;;;;;;4871825;29;20036;-76
2024/01/21 04:04:40;;;;;;;4.88;2.00;;;1.40;99.90;;;;;;4877753;29;20503;-76
2024/01/21 04:07:06;;;;;;;4.18;1.55;;;1.40;99.90;;;;;;4859142;29;20056;-76
2024/01/21 04:09:31;;;;;;;4.85;1.98;;;1.40;99.90;;;;;;4848223;29;20494;-76
2024/01/21 04:11:57;;;;;;;3.38;1.80;;;1.40;99.90;;;;;;4890999;29;20047;-76
2024/01/21 04:14:23;;;;;;;4.82;1.67;;;1.40;99.90;;;;;;4851368;29;20084;-75
2024/01/21 04:16:48;;;;;;;3.67;1.65;;;1.40;99.90;;;;;;4887368;29;20056;-75
2024/01/21 04:19:17;;;;;;;3.13;1.38;;;1.40;99.90;;;;;;4858273;29;20040;-75
2024/01/21 04:21:43;;;;;;;2.65;1.50;;;1.40;99.90;;;;;;4846962;29;20045;-75
2024/01/21 04:24:08;;;;;;;2.28;1.40;;;1.40;99.90;;;;;;4880287;29;20537;-76
2024/01/21 04:26:34;;;;;;;3.20;1.60;;;1.40;99.90;;;;;;4878822;29;20097;-76
2024/01/21 04:29:00;;;;;;;3.08;1.60;;;1.50;99.90;;;;;;4880447;29;20051;-76
2024/01/21 04:31:25;;;;;;;1.75;1.20;;;1.50;99.90;;;;;;4879430;29;20037;-76
2024/01/21 04:33:51;;;;;;;3.17;1.55;;;1.50;99.90;;;;;;4861260;29;20502;-76
2024/01/21 04:36:22;;;;;;;1.70;1.13;;;1.60;99.90;;;;;;4866431;29;20075;-75
2024/01/21 04:38:48;;;;;;;3.22;1.65;;;1.60;99.90;;;;;;4863463;29;20057;-76
2024/01/21 04:41:14;;;;;;;2.85;1.30;;;1.60;99.90;;;;;;4866822;29;20108;-75
2024/01/21 04:43:41;;;;;;;3.40;1.35;;;1.70;99.90;;;;;;4853903;29;20189;-76
2024/01/21 04:46:07;;;;;;;2.40;1.40;;;1.70;99.90;;;;;;4863109;29;20075;-76
2024/01/21 04:48:33;;;;;;;3.50;1.48;;;1.70;99.90;;;;;;4892478;29;20509;-76
2024/01/21 04:50:59;;;;;;;3.08;1.30;;;1.80;99.90;;;;;;4863060;29;22036;-75
2024/01/21 04:53:25;;;;;;;2.75;1.50;;;1.80;99.90;;;;;;4877937;29;20048;-75
2024/01/21 04:55:50;;;;;;;3.30;1.63;;;1.80;99.90;;;;;;4867969;29;20046;-76
2024/01/21 04:58:16;;;;;;;3.85;1.30;;;1.80;99.90;;;;;;4864209;29;20045;-76
2024/01/21 05:00:42;;;;;;;3.85;1.67;;;1.80;99.90;;;;;;4871149;29;20048;-76
2024/01/21 05:03:08;;;;;;;3.05;1.58;;;1.80;99.90;;;;;;4856188;29;20048;-76
2024/01/21 05:05:34;;;;;;;3.92;1.55;;;1.80;99.90;;;;;;4850479;29;20184;-76
2024/01/21 05:08:00;;;;;;;6.40;1.75;;;1.80;99.90;;;;;;4846893;29;20132;-75
2024/01/21 05:10:25;;;;;;;4.22;1.50;;;1.80;99.90;;;;;;4883113;29;20055;-76
2024/01/21 05:12:51;;;;;;;3.08;1.40;;;1.90;99.90;;;;;;4874751;29;20060;-76
2024/01/21 05:15:17;;;;;;;3.05;1.55;;;1.90;99.90;;;;;;4880439;29;20037;-76
2024/01/21 05:17:42;;;;;;;3.70;1.65;;;1.90;99.90;;;;;;4879571;29;20493;-75
2024/01/21 05:20:08;;;;;;;3.65;1.77;;;1.90;99.90;;;;;;4872795;29;20055;-76
2024/01/21 05:22:35;;;;;;;3.42;1.40;;;2.00;99.90;;;;;;4839960;29;20090;-75
2024/01/21 05:25:01;;;;;;;2.20;1.40;;;2.00;99.90;;;;;;4866433;29;20848;-76
2024/01/21 05:27:26;;;;;;;2.97;1.63;;;2.00;99.90;;;;;;4869386;29;20081;-76
2024/01/21 05:29:52;;;;;;;4.90;2.15;;;2.00;99.90;;;;;;4854524;29;20068;-76
2024/01/21 05:32:18;;;;;;;4.30;1.88;;;2.10;99.90;;;;;;4879583;29;20213;-76
2024/01/21 05:34:43;;;;;;;3.60;1.75;;;2.10;99.90;;;;;;4846119;29;20425;-75
2024/01/21 05:37:09;;;;;;;4.40;1.85;;;2.10;99.90;;;;;;4841420;29;20033;-75
2024/01/21 05:39:34;;;;;;;2.58;1.67;;;2.10;99.90;;;;;;4846981;29;20056;-76
2024/01/21 05:42:05;;;;;;;3.42;1.50;;;2.10;99.90;;;;;;4882644;29;20132;-76
2024/01/21 05:44:32;;;;;;;4.82;1.60;;;2.10;99.90;;;;;;4880523;29;20120;-76
2024/01/21 05:46:58;;;;;;;4.37;1.60;;;2.10;99.90;;;;;;4865007;29;20044;-76
2024/01/21 05:49:24;;;;;;;3.90;1.80;;;2.10;99.90;;;;;;4880820;29;20336;-75
2024/01/21 05:51:50;;;;;;;4.97;1.90;;;2.10;99.90;;;;;;4870715;29;20050;-76
2024/01/21 05:54:16;;;;;;;3.42;1.70;;;2.10;99.90;;;;;;4858676;29;20044;-76
2024/01/21 05:56:42;;;;;;;4.60;1.77;;;2.10;99.90;;;;;;4859038;29;20058;-76
2024/01/21 05:59:08;;;;;;;3.72;1.80;;;2.10;99.90;;;;;;4852396;29;20044;-76
2024/01/21 06:01:34;;;;;;;3.47;1.45;;;2.10;99.90;;;;;;4880176;29;20390;-76
2024/01/21 06:03:59;;;;;;;3.58;1.60;;;2.10;99.90;;;;;;4853729;29;20045;-76
2024/01/21 06:06:25;;;;;;;4.22;2.03;;;2.10;99.90;;;;;;4853164;29;20038;-75
2024/01/21 06:08:50;;;;;;;3.67;1.88;;;2.10;99.90;;;;;;4873540;29;20132;-76
2024/01/21 06:11:16;;;;;;;4.47;2.15;;;2.10;99.90;;;;;;4872717;29;20090;-75
2024/01/21 06:13:42;;;;;;;3.80;2.00;;;2.20;99.90;;;;;;4860055;29;20044;-75
2024/01/21 06:16:08;;;;;;;4.85;2.03;;;2.20;99.90;;;;;;4898341;29;20435;-75
2024/01/21 06:18:33;;;;;;;4.20;1.70;;;2.20;99.90;;;;;;4868835;29;20033;-75
2024/01/21 06:20:59;;;;;;;4.53;2.00;;;2.20;99.90;;;;;;4858226;29;20061;-75
2024/01/21 06:23:24;;;;;;;3.90;1.98;;;2.30;99.90;;;;;;4851956;29;20445;-76
2024/01/21 06:25:50;;;;;;;4.18;1.88;;;2.30;99.90;;;;;;4861890;29;20060;-76
2024/01/21 06:28:16;;;;;;;3.30;1.70;;;2.40;99.90;;;;;;4862666;29;20175;-75
2024/01/21 06:30:42;;;;;;;7.57;2.15;;;2.30;99.90;;;;;;4877642;29;20051;-75
2024/01/21 06:33:08;;;;;;;6.15;2.13;;;2.40;99.90;;;;;;4865902;29;20040;-75
2024/01/21 06:35:33;;;;;;;4.00;1.95;;;2.40;99.90;;;;;;4864031;29;20041;-75
2024/01/21 06:37:59;;;;;;;3.38;1.83;;;2.40;99.90;;;;;;4878638;29;20095;-75
2024/01/21 06:40:25;;;;;;;4.28;2.10;;;2.40;99.90;;;;;;4864951;29;20133;-76
2024/01/21 06:42:50;;;;;;;5.88;2.40;;;2.40;99.90;;;;;;4851296;29;20131;-76
2024/01/21 06:45:16;;;;;;;5.68;2.35;;;2.40;99.90;;;;;;4872850;29;20047;-76
2024/01/21 06:47:42;;;;;;;3.88;2.42;;;2.50;99.90;;;;;;4866924;29;20046;-75
2024/01/21 06:50:11;;;;;;;4.40;2.13;;;2.60;99.90;;;;;;4858529;29;20053;-76
2024/01/21 06:52:37;;;;;;;4.50;2.35;;;2.50;99.90;;;;;;4877568;29;20059;-76
2024/01/21 06:55:03;;;;;;;6.32;2.53;;;2.50;99.90;;;;;;4877312;29;20041;-76
2024/01/21 06:57:29;;;;;;;4.18;2.38;;;2.50;99.90;;;;;;4867647;29;20488;-76
2024/01/21 06:59:54;;;;;;;6.00;2.70;;;2.50;99.90;;;;;;4890947;29;20125;-76
2024/01/21 07:02:20;;;;;;;4.65;2.72;;;2.50;99.90;;;;;;4888326;29;20059;-76
2024/01/21 07:04:45;;;;;;;5.82;2.65;;;2.50;99.90;;;;;;4869509;29;20124;-75
2024/01/21 07:07:11;;;;;;;5.28;2.65;;;2.60;99.90;;;;;;4862015;29;20049;-76
2024/01/21 07:09:41;;;;;;;6.22;3.00;;;2.60;99.90;;;;;;4861509;29;20089;-76
2024/01/21 07:12:07;;;;;;;5.82;2.50;;;2.60;99.90;;;;;;4876574;29;20105;-76
2024/01/21 07:14:34;;;;;;;5.03;2.70;;;2.60;99.90;;;;;;4859349;29;20106;-76
2024/01/21 07:17:03;;;;;;;7.87;3.20;;;2.60;99.90;;;;;;4875476;29;20052;-76
2024/01/21 07:19:29;;;;;;;6.88;3.13;;;2.60;99.90;;;;;;4877758;29;20047;-76
2024/01/21 07:21:54;;;;;;;9.75;3.20;;;2.60;99.90;;;;;;4876785;29;20064;-75
2024/01/21 07:24:20;;;;;;;8.00;3.35;;;2.60;99.90;;;;;;4875400;29;20060;-76
2024/01/21 07:26:45;;;;;;;8.23;3.45;;;2.60;99.90;;;;;;4868337;29;20094;-76
2024/01/21 07:29:13;;;;;;;6.35;3.30;;;2.60;99.90;;;;;;4874949;29;20096;-75
2024/01/21 07:31:39;;;;;;;7.35;3.80;;;2.60;99.90;;;;;;4881825;29;20056;-75
2024/01/21 07:34:09;;;;;;;8.10;4.18;;;2.60;99.90;;;;;;4865247;29;20045;-75
2024/01/21 07:36:35;;;;;;;8.23;4.40;;;2.60;99.90;;;;;;4875663;29;20045;-76
2024/01/21 07:39:03;;;;;;;9.98;4.10;;;2.60;99.90;;;;;;4856060;29;20052;-75
2024/01/21 07:41:29;;;;;;;8.57;3.90;;;2.60;99.90;;;;;;4855823;29;20046;-75
2024/01/21 07:43:54;;;;;;;9.15;4.03;;;2.60;99.90;;;;;;4868049;29;20143;-75
2024/01/21 07:46:20;;;;;;;8.10;4.15;;;2.60;99.90;;;;;;4843197;29;20057;-75
2024/01/21 07:48:45;;;;;;;7.72;3.95;;;2.50;99.90;;;;;;4866213;29;20461;-76
2024/01/21 07:51:11;;;;;;;8.95;3.80;;;2.50;99.90;;;;;;4843052;29;20493;-75
2024/01/21 07:53:37;;;;;;;10.23;4.35;;;2.50;99.90;;;;;;4849750;29;20041;-83
2024/01/21 07:56:02;;;;;;;9.00;4.50;;;2.50;99.90;;;;;;4849073;29;20125;-77
2024/01/21 07:58:28;;;;;;;9.75;4.43;;;2.50;99.90;;;;;;4873504;29;20049;-77
2024/01/21 08:00:54;;;;;;;10.02;4.40;;;2.50;99.90;;;;;;4872181;29;20533;-79
2024/01/21 08:03:19;;;;;;;9.43;4.20;;;2.50;99.90;;;;;;4893968;29;20049;-83
2024/01/21 08:05:45;;;;;;;9.73;4.13;;;2.40;99.90;;;;;;4861555;29;20041;-81
2024/01/21 08:08:11;;;;;;;8.73;4.35;;;2.40;99.90;;;;;;4880577;29;20045;-83
2024/01/21 08:10:36;;;;;;;8.27;4.13;;;2.40;99.90;;;;;;4878347;29;20048;-82
2024/01/21 08:13:02;;;;;;;8.82;4.50;;;2.40;99.90;;;;;;4852358;29;20038;-82
2024/01/21 08:15:27;;;;;;;9.05;4.53;;;2.40;99.90;;;;;;4848043;29;20830;-86
2024/01/21 08:17:53;;;;;;;9.60;4.50;;;2.40;99.90;;;;;;4853542;29;20534;-82
2024/01/21 08:20:19;;;;;;;9.23;4.40;;;2.40;99.90;;;;;;4875147;29;20109;-80
2024/01/21 08:22:45;;;;;;;9.23;4.35;;;2.40;99.90;;;;;;4859390;29;20418;-79
2024/01/21 08:25:10;;;;;;;9.55;4.50;;;2.40;99.90;;;;;;4873053;29;20049;-82
2024/01/21 08:27:36;;;;;;;9.82;4.50;;;2.40;99.90;;;;;;4865324;29;20029;-84
2024/01/21 08:30:04;;;;;;;10.20;4.38;;;2.40;99.90;;;;;;4862653;29;20048;-83
2024/01/21 08:32:29;;;;;;;10.15;5.03;;;2.40;99.90;;;;;;4846950;29;20397;-82
2024/01/21 08:34:55;;;;;;;9.18;5.10;;;2.40;99.90;;;;;;4857581;29;20051;-83
2024/01/21 08:37:21;;;;;;;10.63;5.10;;;2.40;99.90;;;;;;4850998;29;20070;-82
2024/01/21 08:39:48;;;;;;;8.48;4.82;;;2.40;99.90;;;;;;4866329;29;20561;-78
2024/01/21 08:42:14;;;;;;;11.80;4.75;;;2.40;99.90;;;;;;4856071;29;20063;-74
2024/01/21 08:44:39;;;;;;;10.48;5.05;;;2.40;99.90;;;;;;4861011;29;20505;-78
2024/01/21 08:47:05;;;;;;;10.73;4.75;;;2.40;99.90;;;;;;4850472;29;20511;-74
2024/01/21 08:49:30;;;;;;;11.00;5.28;;;2.50;99.90;;;;;;4866128;29;20422;-74
2024/01/21 08:51:56;;;;;;;9.15;5.13;;;2.50;99.90;;;;;;4869988;29;20045;-74
2024/01/21 08:54:22;;;;;;;10.05;4.68;;;2.50;99.90;;;;;;4878437;29;20914;-73
2024/01/21 08:56:48;;;;;;;10.82;5.32;;;2.50;99.90;;;;;;4874009;29;20053;-74
2024/01/21 08:59:14;;;;;;;10.40;4.70;;;2.50;99.90;;;;;;4868764;29;20232;-74
2024/01/21 09:01:39;;;;;;;10.77;4.75;;;2.50;99.90;;;;;;4853077;29;20112;-74
2024/01/21 09:04:05;;;;;;;13.77;5.25;;;2.50;99.90;;;;;;4854700;29;20771;-75
2024/01/21 09:06:31;;;;;;;10.10;4.53;;;2.50;99.90;;;;;;4868536;29;20045;-74
2024/01/21 09:08:56;;;;;;;9.95;6.05;;;2.50;99.90;;;;;;4848463;29;20106;-74
2024/01/21 09:11:23;;;;;;;10.40;5.50;;;2.60;99.90;;;;;;4871533;29;20057;-74
2024/01/21 09:13:49;;;;;;;11.03;5.47;;;2.60;99.90;;;;;;4862197;29;20391;-75
2024/01/21 09:16:19;;;;;;;12.15;5.53;;;2.60;99.90;;;;;;4871185;29;20048;-74
2024/01/21 09:18:46;;;;;;;8.93;4.80;;;2.60;99.90;;;;;;4859337;29;20173;-75
2024/01/21 09:21:12;;;;;;;10.43;5.40;;;2.60;99.90;;;;;;4852507;29;20394;-74
2024/01/21 09:23:37;;;;;;;8.38;4.70;;;2.60;99.90;;;;;;4874197;29;20052;-73
2024/01/21 09:26:03;;;;;;;11.13;5.15;;;2.60;99.90;;;;;;4871336;29;20056;-74
2024/01/21 09:28:29;;;;;;;9.32;4.90;;;2.60;99.90;;;;;;4850286;29;20077;-74
2024/01/21 09:30:54;;;;;;;12.43;5.32;;;2.70;99.90;;;;;;4873138;29;20051;-74
2024/01/21 09:33:20;;;;;;;9.43;5.05;;;2.70;99.90;;;;;;4857038;29;20549;-75
2024/01/21 09:35:46;;;;;;;9.85;4.80;;;2.70;99.90;;;;;;4856878;29;20056;-74
2024/01/21 09:38:14;;;;;;;10.52;5.18;;;2.70;99.90;;;;;;4883336;29;20056;-74
2024/01/21 09:40:40;;;;;;;8.63;4.88;;;2.80;99.90;;;;;;4855750;29;20076;-75
2024/01/21 09:43:06;;;;;;;11.25;5.50;;;2.80;99.90;;;;;;4874359;29;20049;-75
2024/01/21 09:45:37;;;;;;;10.35;5.60;;;2.80;99.90;;;;;;4873659;29;20060;-74
2024/01/21 09:48:05;;;;;;;10.20;5.35;;;2.80;99.90;;;;;;4869482;29;20383;-74
2024/01/21 09:50:32;;;;;;;10.05;5.22;;;2.80;99.90;;;;;;4862153;29;20049;-73
2024/01/21 09:52:58;;;;;;;9.98;4.53;;;2.80;99.90;;;;;;4856783;29;20042;-74
2024/01/21 09:55:24;;;;;;;10.82;5.80;;;2.80;99.90;;;;;;4876176;29;20116;-74
2024/01/21 09:57:50;;;;;;;9.40;5.00;;;2.80;99.90;;;;;;4865275;29;20060;-74
2024/01/21 10:00:17;;;;;;;8.80;4.47;;;2.80;99.90;;;;;;4855035;29;20060;-74
2024/01/21 10:02:44;;;;;;;8.77;4.97;;;2.90;99.90;;;;;;4873992;29;20163;-74
2024/01/21 10:05:10;;;;;;;9.65;8.20;;;2.90;99.90;;;;;;4858522;29;21929;-73
2024/01/21 10:07:37;;;;;;;9.20;4.68;;;3.00;99.90;;;;;;4880901;29;20036;-74
2024/01/21 10:10:03;;;;;;;12.27;5.03;;;3.00;99.90;;;;;;4859653;29;20659;-74
2024/01/21 10:12:32;;;;;;;12.20;4.93;;;3.00;99.90;;;;;;4876007;29;20065;-75
2024/01/21 10:14:57;;;;;;;10.65;5.38;;;3.00;99.90;;;;;;4857064;29;20076;-74
2024/01/21 10:17:26;;;;;;;11.15;5.13;;;3.00;99.90;;;;;;4874527;29;20389;-74
2024/01/21 10:19:57;;;;;;;9.32;4.55;;;3.00;99.90;;;;;;4873143;29;20055;-75
2024/01/21 10:22:25;;;;;;;9.80;4.82;;;3.00;99.90;;;;;;4862305;29;20053;-78
2024/01/21 10:24:51;;;;;;;10.98;8.18;;;3.00;99.90;;;;;;4863838;29;20086;-73
2024/01/21 10:27:16;;;;;;;8.65;5.10;;;3.00;99.90;;;;;;4875355;29;20076;-77
2024/01/21 10:29:46;;;;;;;8.70;4.70;;;3.00;99.90;;;;;;4867834;29;20087;-79
2024/01/21 10:32:14;;;;;;;9.68;5.43;;;3.10;99.90;;;;;;4870110;29;20076;-77
2024/01/21 10:34:42;;;;;;;11.05;5.30;;;3.00;99.90;;;;;;4842811;29;20052;-78
2024/01/21 10:37:07;;;;;;;;;;;3.10;99.90;;;;;;4870991;29;20081;-78
2024/01/21 10:39:36;;;;;;;10.05;5.30;;;3.00;99.90;;;;;;4881395;29;19924;-76
2024/01/21 10:42:02;;;;;;;9.52;5.30;;;3.10;99.90;;;;;;4876342;29;20056;-77
2024/01/21 10:44:28;;;;;;;9.02;4.88;;;3.10;99.90;;;;;;4874968;29;20073;-77
2024/01/21 10:46:55;;;;;;;12.02;5.30;;;3.10;99.90;;;;;;4866409;29;20041;-76
2024/01/21 10:49:21;;;;;;;9.15;4.70;;;3.10;99.90;;;;;;4867301;29;20140;-78
2024/01/21 10:51:51;;;;;;;12.02;5.30;;;3.10;99.90;;;;;;4866596;29;20132;-77
2024/01/21 10:54:16;;;;;;;13.13;6.00;;;3.10;99.90;;;;;;4849669;29;20064;-77
2024/01/21 10:56:43;;;;;;;13.18;6.13;;;3.10;99.90;;;;;;4870029;29;20037;-77
2024/01/21 10:59:10;;;;;;;9.45;5.03;;;3.10;99.90;;;;;;4868132;29;20099;-77
2024/01/21 11:01:36;;;;;;;11.15;5.07;;;3.10;99.90;;;;;;4848189;29;20059;-77
2024/01/21 11:04:07;;;;;;;9.67;5.57;;;3.10;99.90;;;;;;4855459;29;20053;-76
2024/01/21 11:06:34;;;;;;;11.60;5.65;;;3.10;99.90;;;;;;4849671;29;20056;-77
2024/01/21 11:09:07;;;;;;;9.77;5.30;;;3.20;99.90;;;;;;4843448;29;20050;-76
2024/01/21 11:11:41;;;;;;;11.32;5.38;;;3.20;99.90;;;;;;4857391;29;20067;-76
2024/01/21 11:14:37;;;;;;;11.95;5.93;;;3.20;99.90;;;;;;4873449;29;20041;-76
2024/01/21 11:17:04;;;;;;;9.48;5.38;;;3.20;99.90;;;;;;4868947;29;20059;-76
2024/01/21 11:19:49;;;;;;;12.32;5.38;;;3.20;99.90;;;;;;4867931;29;20510;-76
2024/01/21 11:22:16;;;;;;;8.98;4.47;;;3.20;99.90;;;;;;4843270;29;20041;-76
2024/01/21 11:24:43;;;;;;;10.77;5.30;;;3.20;99.90;;;;;;4847393;29;20053;-76
2024/01/21 11:27:20;;;;;;;10.30;5.43;;;3.20;99.90;;;;;;4851344;29;20401;-76
2024/01/21 11:29:49;;;;;;;;;;;3.30;99.90;;;;;;4849472;29;20056;-74
2024/01/21 11:32:22;;;;;;;11.93;5.20;;;3.30;99.90;;;;;;4879944;29;19928;-77
2024/01/21 11:34:48;;;;;;;9.50;4.88;;;3.30;99.90;;;;;;4882663;29;20075;-77
2024/01/21 11:37:14;;;;;;;11.40;5.60;;;3.30;99.90;;;;;;4872918;29;20045;-76
2024/01/21 11:39:41;;;;;;;12.05;4.82;;;3.30;99.90;;;;;;4851719;29;20057;-77
2024/01/21 11:42:07;;;;;;;9.15;5.38;;;3.30;99.90;;;;;;4882454;29;20060;-76
2024/01/21 11:44:34;;;;;;;10.07;5.00;;;3.30;99.90;;;;;;4853449;29;20074;-77
2024/01/21 11:47:02;;;;;;;9.30;5.28;;;3.30;99.90;;;;;;4865603;29;20474;-77
2024/01/21 11:49:32;;;;;;;9.57;5.72;;;3.30;99.90;;;;;;4849180;29;20046;-78
2024/01/21 11:52:00;;;;;;;10.30;5.95;;;3.30;99.90;;;;;;4875236;29;20053;-75
2024/01/21 11:54:26;;;;;;;11.23;6.13;;;3.30;99.90;;;;;;4868298;29;20053;-76
2024/01/21 11:56:55;;;;;;;10.40;6.25;;;3.30;99.90;;;;;;4854039;29;20086;-75
2024/01/21 11:59:21;;;;;;;11.00;5.85;;;3.30;99.90;;;;;;4857077;29;20053;-83
2024/01/21 12:01:48;;;;;;;10.10;6.22;;;3.30;99.90;;;;;;4881881;29;20117;-85
2024/01/21 12:04:13;;;;;;;9.77;5.87;;;3.30;99.90;;;;;;4866511;29;20041;-83
2024/01/21 12:06:45;;;;;;;11.32;5.38;;;3.30;99.90;;;;;;4871444;29;20297;-83
2024/01/21 12:09:11;;;;;;;11.27;9.48;;;3.30;99.90;;;;;;4851477;29;20061;-85
2024/01/21 12:11:38;;;;;;;13.00;6.23;;;3.30;99.90;;;;;;4874951;29;20703;-82
2024/01/21 12:14:09;;;;;;;9.52;5.43;;;3.30;99.90;;;;;;4859685;29;20389;-88
2024/01/21 12:16:35;;;;;;;11.40;5.32;;;3.30;99.90;;;;;;4856874;29;20545;-75
2024/01/21 12:19:02;;;;;;;10.90;6.15;;;3.30;99.90;;;;;;4856679;29;20044;-75
2024/01/21 12:21:30;;;;;;;10.88;5.90;;;3.30;99.90;;;;;;4882564;29;20105;-74
2024/01/21 12:23:57;;;;;;;10.80;5.22;;;3.40;99.90;;;;;;4863532;29;20465;-77
2024/01/21 12:26:24;;;;;;;10.57;5.90;;;3.40;99.90;;;;;;4845009;29;20053;-73
2024/01/21 12:29:10;;;;;;;10.23;5.95;;;3.40;99.90;;;;;;4869989;29;20076;-77
2024/01/21 12:31:38;;;;;;;10.52;5.55;;;3.40;99.90;;;;;;4847400;29;20088;-77
2024/01/21 12:34:05;;;;;;;11.15;5.93;;;3.40;99.90;;;;;;4872663;29;20128;-75
2024/01/21 12:36:36;;;;;;;11.70;6.13;;;3.40;99.90;;;;;;4865860;29;20053;-75
2024/01/21 12:39:04;;;;;;;10.15;5.55;;;3.40;99.90;;;;;;4854508;29;20060;-80
2024/01/21 12:41:30;;;;;;;9.90;5.68;;;3.50;99.90;;;;;;4861538;29;20064;-75
2024/01/21 12:43:55;;;;;;;11.18;5.55;;;3.50;99.90;;;;;;4853929;29;20053;-76
2024/01/21 12:46:22;;;;;;;9.90;5.32;;;3.50;99.90;;;;;;4869419;29;20828;-75
2024/01/21 12:48:49;;;;;;;10.65;6.03;;;3.50;99.90;;;;;;4867551;29;20037;-74
2024/01/21 12:51:18;;;;;;;11.48;9.73;;;3.50;99.90;;;;;;4866816;29;20085;-73